Aviation Digital Data Service (ADDS)

Output produced by METARs form (1212 UTC 16 July 2019)
found at http://www.aviationweather.gov/metar/data/
 
OBBI 161200Z 32019KT 9999 FEW040 38/20 Q0995 NOSIG
TAF OBBI 161100Z 1612/1718 34018KT CAVOK 
     PROB30 
     TEMPO 1613/1617 5000 DU 
     BECMG 1615/1617 28008KT 
     BECMG 1700/1702 34018KT